createdAt,value
2023-05-13T00:00:44.497Z,7.80
2023-05-13T00:01:44.497Z,7.40
2023-05-13T00:02:44.514Z,8.70
2023-05-13T00:03:44.592Z,9.10
2023-05-13T00:04:44.489Z,9.00
2023-05-13T00:05:44.556Z,8.90
2023-05-13T00:06:44.489Z,9.50
2023-05-13T00:07:44.484Z,9.60
2023-05-13T00:08:44.500Z,9.80
2023-05-13T00:09:44.489Z,9.70
2023-05-13T00:10:44.491Z,9.70
2023-05-13T00:11:44.472Z,10.10
2023-05-13T00:12:44.471Z,10.90
2023-05-13T00:13:44.469Z,12.40
2023-05-13T00:14:44.466Z,12.70
2023-05-13T00:15:44.463Z,12.40
2023-05-13T00:16:44.560Z,12.40
2023-05-13T00:17:44.482Z,12.60
2023-05-13T00:18:44.487Z,12.80
2023-05-13T00:19:44.454Z,12.90
2023-05-13T00:20:44.450Z,13.10
2023-05-13T00:21:44.449Z,12.60
2023-05-13T00:22:44.443Z,12.70
2023-05-13T00:23:44.456Z,12.40
2023-05-13T00:24:44.445Z,8.90
2023-05-13T00:25:44.844Z,8.50
2023-05-13T00:26:44.450Z,9.50
2023-05-13T00:27:44.440Z,10.10
2023-05-13T00:28:44.430Z,10.00
2023-05-13T00:29:44.434Z,11.60
2023-05-13T00:30:44.431Z,11.00
2023-05-13T00:31:44.487Z,11.80
2023-05-13T00:32:44.448Z,11.50
2023-05-13T00:33:44.421Z,10.90
2023-05-13T00:34:44.416Z,11.20
2023-05-13T00:35:44.417Z,11.80
2023-05-13T00:36:44.420Z,11.80
2023-05-13T00:37:44.412Z,12.40
2023-05-13T00:38:44.407Z,14.10
2023-05-13T00:39:44.403Z,13.30
2023-05-13T00:40:44.403Z,14.40
2023-05-13T00:41:44.399Z,13.30
2023-05-13T00:42:44.478Z,15.40
2023-05-13T00:43:44.398Z,14.90
2023-05-13T00:44:44.392Z,16.10
2023-05-13T00:45:44.432Z,15.30
2023-05-13T00:46:44.399Z,15.00
2023-05-13T00:47:44.419Z,14.30
2023-05-13T00:48:44.393Z,15.00
2023-05-13T00:49:44.381Z,15.80
2023-05-13T00:50:44.377Z,15.50
2023-05-13T00:51:44.387Z,13.90
2023-05-13T00:52:44.371Z,14.00
2023-05-13T00:53:44.386Z,13.80
2023-05-13T00:54:44.376Z,14.30
2023-05-13T00:55:44.369Z,13.60
2023-05-13T00:56:44.365Z,14.00
2023-05-13T00:57:44.380Z,13.80
2023-05-13T00:58:44.388Z,14.10
2023-05-13T00:59:44.364Z,12.80
2023-05-13T01:00:44.353Z,13.90
2023-05-13T01:01:44.391Z,13.10
2023-05-13T01:02:44.422Z,13.10
2023-05-13T01:03:44.350Z,13.40
2023-05-13T01:04:44.359Z,13.50
2023-05-13T01:05:44.341Z,13.20
2023-05-13T01:06:44.337Z,13.00
2023-05-13T01:07:44.342Z,12.10
2023-05-13T01:08:44.332Z,12.20
2023-05-13T01:09:44.331Z,12.20
2023-05-13T01:10:44.331Z,12.80
2023-05-13T01:11:44.347Z,11.70
2023-05-13T01:12:44.321Z,11.30
2023-05-13T01:13:44.321Z,11.30
2023-05-13T01:14:44.345Z,11.30
2023-05-13T01:15:44.319Z,11.10
2023-05-13T01:16:44.437Z,11.60
2023-05-13T01:17:44.389Z,10.70
2023-05-13T01:18:44.342Z,10.70
2023-05-13T01:19:44.316Z,11.70
2023-05-13T01:20:44.304Z,12.00
2023-05-13T01:21:44.306Z,11.90
2023-05-13T01:22:44.302Z,12.10
2023-05-13T01:23:44.301Z,11.50
2023-05-13T01:24:44.346Z,11.70
2023-05-13T01:25:44.646Z,13.10
2023-05-13T01:26:44.291Z,12.70
2023-05-13T01:27:44.297Z,14.50
2023-05-13T01:28:44.286Z,14.20
2023-05-13T01:29:44.283Z,14.90
2023-05-13T01:30:44.302Z,13.20
2023-05-13T01:31:44.312Z,12.70
2023-05-13T01:32:44.290Z,12.50
2023-05-13T01:33:44.291Z,13.00
2023-05-13T01:34:44.270Z,12.20
2023-05-13T01:35:44.272Z,12.30
2023-05-13T01:36:44.270Z,12.00
2023-05-13T01:37:44.274Z,11.50
2023-05-13T01:38:44.257Z,12.70
2023-05-13T01:39:44.260Z,12.20
2023-05-13T01:40:44.258Z,12.30
2023-05-13T01:41:44.253Z,12.40
2023-05-13T01:42:44.254Z,12.30
2023-05-13T01:43:44.249Z,12.70
2023-05-13T01:44:44.246Z,12.60
2023-05-13T01:45:44.252Z,12.20
2023-05-13T01:46:44.309Z,12.30
2023-05-13T01:47:44.281Z,12.40
2023-05-13T01:48:44.246Z,12.20
2023-05-13T01:49:44.237Z,12.20
2023-05-13T01:50:44.233Z,11.60
2023-05-13T01:51:44.230Z,12.50
2023-05-13T01:52:44.230Z,13.40
2023-05-13T01:53:44.240Z,13.30
2023-05-13T01:54:44.225Z,12.90
2023-05-13T01:55:44.232Z,12.90
2023-05-13T01:56:44.227Z,12.60
2023-05-13T01:57:44.220Z,13.90
2023-05-13T01:58:44.233Z,14.20
2023-05-13T01:59:44.219Z,14.70
2023-05-13T02:00:44.212Z,14.40
2023-05-13T02:01:44.217Z,14.40
2023-05-13T02:02:44.306Z,13.60
2023-05-13T02:03:44.250Z,14.60
2023-05-13T02:04:44.195Z,14.20
2023-05-13T02:05:44.203Z,14.30
2023-05-13T02:06:44.194Z,15.20
2023-05-13T02:07:44.200Z,14.30
2023-05-13T02:08:44.191Z,13.40
2023-05-13T02:09:44.200Z,13.60
2023-05-13T02:10:44.184Z,14.80
2023-05-13T02:11:44.186Z,14.00
2023-05-13T02:12:44.179Z,14.30
2023-05-13T02:13:44.287Z,15.10
2023-05-13T02:14:44.176Z,14.50
2023-05-13T02:15:44.176Z,14.00
2023-05-13T02:16:44.212Z,14.50
2023-05-13T02:17:44.202Z,15.50
2023-05-13T02:18:44.208Z,14.80
2023-05-13T02:19:44.177Z,14.80
2023-05-13T02:20:44.171Z,15.50
2023-05-13T02:21:44.177Z,14.20
2023-05-13T02:22:44.163Z,15.70
2023-05-13T02:23:44.173Z,15.70
2023-05-13T02:24:44.153Z,15.80
2023-05-13T02:25:44.512Z,16.60
2023-05-13T02:26:44.160Z,16.20
2023-05-13T02:27:44.156Z,17.20
2023-05-13T02:28:44.147Z,17.00
2023-05-13T02:29:44.146Z,16.70
2023-05-13T02:30:44.142Z,16.10
2023-05-13T02:31:44.166Z,16.90
2023-05-13T02:32:44.271Z,16.90
2023-05-13T02:33:44.139Z,16.20
2023-05-13T02:34:44.158Z,16.10
2023-05-13T02:35:44.138Z,16.50
2023-05-13T02:36:44.126Z,16.20
2023-05-13T02:37:44.129Z,16.60
2023-05-13T02:38:44.129Z,16.80
2023-05-13T02:39:44.122Z,17.30
2023-05-13T02:40:44.125Z,16.90
2023-05-13T02:41:44.117Z,17.60
2023-05-13T02:42:44.121Z,17.10
2023-05-13T02:43:44.115Z,17.10
2023-05-13T02:44:44.123Z,17.00
2023-05-13T02:45:44.128Z,16.80
2023-05-13T02:46:44.113Z,16.50
2023-05-13T02:47:44.142Z,17.40
2023-05-13T02:48:44.120Z,17.30
2023-05-13T02:49:44.108Z,16.70
2023-05-13T02:50:44.125Z,18.30
2023-05-13T02:51:44.106Z,16.40
2023-05-13T02:52:44.090Z,17.00
2023-05-13T02:53:44.090Z,17.70
2023-05-13T02:54:44.101Z,16.80
2023-05-13T02:55:44.291Z,16.50
2023-05-13T02:56:44.084Z,16.30
2023-05-13T02:57:44.082Z,16.60
2023-05-13T02:58:44.081Z,17.30
2023-05-13T02:59:44.091Z,17.70
2023-05-13T03:00:44.074Z,16.80
2023-05-13T03:01:44.135Z,16.50
2023-05-13T03:02:44.135Z,16.40
2023-05-13T03:03:44.132Z,16.70
2023-05-13T03:04:44.074Z,16.90
2023-05-13T03:05:44.089Z,16.60
2023-05-13T03:06:44.088Z,17.10
2023-05-13T03:07:44.079Z,16.40
2023-05-13T03:08:44.059Z,16.20
2023-05-13T03:09:44.061Z,16.00
2023-05-13T03:10:44.060Z,16.30
2023-05-13T03:11:44.054Z,16.10
2023-05-13T03:12:44.051Z,15.30
2023-05-13T03:13:44.058Z,15.10
2023-05-13T03:14:44.044Z,15.30
2023-05-13T03:15:44.696Z,15.10
2023-05-13T03:16:44.041Z,15.20
2023-05-13T03:17:44.068Z,15.00
2023-05-13T03:18:44.050Z,15.20
2023-05-13T03:19:44.037Z,14.90
2023-05-13T03:20:44.030Z,15.10
2023-05-13T03:21:44.028Z,14.40
2023-05-13T03:22:44.048Z,15.70
2023-05-13T03:23:44.034Z,14.10
2023-05-13T03:24:44.022Z,13.60
2023-05-13T03:25:44.029Z,14.80
2023-05-13T03:26:44.015Z,13.60
2023-05-13T03:27:44.024Z,13.80
2023-05-13T03:28:44.008Z,13.70
2023-05-13T03:29:44.009Z,14.60
2023-05-13T03:30:44.021Z,14.20
2023-05-13T03:31:44.045Z,13.90
2023-05-13T03:32:44.068Z,14.10
2023-05-13T03:33:44.004Z,14.20
2023-05-13T03:34:44.013Z,15.40
2023-05-13T03:35:44.006Z,14.80
2023-05-13T03:36:44.001Z,14.30
2023-05-13T03:37:43.997Z,14.90
2023-05-13T03:38:44.027Z,14.60
2023-05-13T03:39:44.003Z,15.20
2023-05-13T03:40:43.987Z,15.30
2023-05-13T03:41:43.990Z,15.10
2023-05-13T03:42:43.980Z,14.90
2023-05-13T03:43:43.980Z,14.20
2023-05-13T03:44:43.977Z,14.60
2023-05-13T03:45:43.979Z,14.50
2023-05-13T03:46:44.018Z,15.70
2023-05-13T03:47:43.989Z,14.70
2023-05-13T03:48:43.994Z,15.90
2023-05-13T03:49:43.967Z,15.60
2023-05-13T03:50:43.963Z,14.50
2023-05-13T03:51:43.968Z,14.80
2023-05-13T03:52:45.543Z,14.50
2023-05-13T03:53:43.957Z,14.70
2023-05-13T03:54:43.988Z,14.80
2023-05-13T03:55:43.952Z,14.50
2023-05-13T03:56:43.949Z,13.30
2023-05-13T03:57:43.981Z,14.10
2023-05-13T03:58:43.952Z,14.50
2023-05-13T03:59:43.948Z,14.20
2023-05-13T04:00:43.944Z,13.80
2023-05-13T04:01:44.511Z,14.00
2023-05-13T04:02:44.111Z,13.60
2023-05-13T04:03:43.942Z,12.90
2023-05-13T04:04:43.951Z,13.60
2023-05-13T04:05:43.944Z,13.30
2023-05-13T04:06:43.936Z,13.80
2023-05-13T04:07:43.932Z,13.50
2023-05-13T04:08:43.925Z,13.90
2023-05-13T04:09:43.933Z,13.70
2023-05-13T04:10:43.948Z,12.90
2023-05-13T04:11:43.928Z,12.90
2023-05-13T04:12:43.933Z,12.20
2023-05-13T04:13:43.917Z,12.30
2023-05-13T04:14:43.917Z,12.70
2023-05-13T04:15:43.936Z,12.60
2023-05-13T04:16:43.957Z,13.70
2023-05-13T04:17:43.974Z,15.00
2023-05-13T04:18:44.015Z,14.70
2023-05-13T04:19:43.908Z,14.90
2023-05-13T04:20:43.906Z,13.40
2023-05-13T04:21:43.901Z,13.90
2023-05-13T04:22:43.904Z,13.60
2023-05-13T04:23:43.895Z,13.30
2023-05-13T04:24:43.893Z,13.40
2023-05-13T04:25:43.890Z,12.80
2023-05-13T04:26:43.904Z,13.30
2023-05-13T04:27:44.069Z,12.20
2023-05-13T04:28:43.879Z,13.70
2023-05-13T04:29:43.946Z,13.10
2023-05-13T04:30:43.875Z,13.40
2023-05-13T04:31:43.893Z,13.40
2023-05-13T04:32:43.917Z,14.10
2023-05-13T04:33:43.872Z,13.40
2023-05-13T04:34:43.866Z,13.40
2023-05-13T04:35:43.864Z,13.50
2023-05-13T04:36:43.862Z,13.90
2023-05-13T04:37:43.866Z,13.10
2023-05-13T04:38:43.870Z,14.30
2023-05-13T04:39:43.859Z,13.10
2023-05-13T04:40:43.852Z,13.50
2023-05-13T04:41:43.848Z,13.80
2023-05-13T04:42:43.867Z,15.10
2023-05-13T04:43:43.848Z,15.10
2023-05-13T04:44:43.869Z,14.80
2023-05-13T04:45:43.843Z,13.80
2023-05-13T04:46:43.952Z,14.00
2023-05-13T04:47:43.865Z,14.40
2023-05-13T04:48:43.835Z,14.40
2023-05-13T04:49:43.831Z,13.60
2023-05-13T04:50:43.833Z,14.40
2023-05-13T04:51:43.828Z,14.10
2023-05-13T04:52:43.824Z,14.50
2023-05-13T04:53:43.823Z,15.60
2023-05-13T04:54:43.820Z,15.00
2023-05-13T04:55:43.818Z,13.80
2023-05-13T04:56:43.816Z,13.50
2023-05-13T04:57:43.816Z,15.30
2023-05-13T04:58:43.834Z,14.90
2023-05-13T04:59:43.839Z,14.90
2023-05-13T05:00:43.834Z,14.90
2023-05-13T05:01:43.846Z,14.30
2023-05-13T05:02:43.850Z,13.80
2023-05-13T05:03:43.849Z,13.70
2023-05-13T05:04:43.802Z,13.40
2023-05-13T05:05:43.801Z,13.10
2023-05-13T05:06:43.802Z,13.20
2023-05-13T05:07:44.840Z,13.70
2023-05-13T05:08:43.805Z,13.40
2023-05-13T05:09:43.792Z,13.10
2023-05-13T05:10:43.786Z,13.70
2023-05-13T05:11:43.798Z,13.10
2023-05-13T05:12:43.803Z,13.20
2023-05-13T05:13:43.785Z,13.10
2023-05-13T05:14:43.798Z,14.00
2023-05-13T05:15:43.813Z,13.90
2023-05-13T05:16:43.782Z,15.00
2023-05-13T05:17:43.904Z,14.30
2023-05-13T05:18:43.883Z,14.40
2023-05-13T05:19:43.771Z,14.80
2023-05-13T05:20:43.764Z,14.60
2023-05-13T05:21:43.781Z,14.80
2023-05-13T05:22:43.764Z,15.20
2023-05-13T05:23:43.759Z,16.30
2023-05-13T05:24:43.761Z,17.50
2023-05-13T05:25:43.769Z,17.40
2023-05-13T05:26:43.757Z,17.60
2023-05-13T05:27:43.749Z,16.60
2023-05-13T05:28:43.901Z,16.40
2023-05-13T05:29:43.753Z,16.90
2023-05-13T05:30:43.766Z,17.70
2023-05-13T05:31:43.789Z,17.30
2023-05-13T05:32:43.806Z,16.60
2023-05-13T05:33:43.734Z,16.90
2023-05-13T05:34:43.739Z,16.80
2023-05-13T05:35:43.734Z,16.90
2023-05-13T05:36:43.748Z,16.00
2023-05-13T05:37:43.733Z,16.30
2023-05-13T05:38:43.728Z,16.20
2023-05-13T05:39:43.725Z,17.30
2023-05-13T05:40:43.724Z,16.00
2023-05-13T05:41:43.724Z,16.90
2023-05-13T05:42:43.794Z,16.50
2023-05-13T05:43:43.721Z,16.60
2023-05-13T05:44:43.718Z,15.90
2023-05-13T05:45:43.817Z,15.60
2023-05-13T05:46:43.722Z,15.10
2023-05-13T05:47:43.735Z,15.50
2023-05-13T05:48:43.707Z,16.30
2023-05-13T05:49:43.715Z,15.70
2023-05-13T05:50:43.710Z,15.00
2023-05-13T05:51:43.698Z,15.40
2023-05-13T05:52:43.698Z,15.20
2023-05-13T05:53:43.693Z,15.40
2023-05-13T05:54:43.692Z,15.70
2023-05-13T05:55:43.698Z,15.00
2023-05-13T05:56:43.689Z,15.20
2023-05-13T05:57:43.686Z,15.80
2023-05-13T05:58:43.690Z,15.10
2023-05-13T05:59:43.696Z,16.50
2023-05-13T06:00:43.681Z,15.90
2023-05-13T06:01:43.677Z,18.30
2023-05-13T06:02:43.772Z,17.00
2023-05-13T06:03:43.796Z,15.50
2023-05-13T06:04:43.835Z,15.50
2023-05-13T06:05:43.677Z,14.80
2023-05-13T06:06:43.703Z,13.60
2023-05-13T06:07:43.673Z,14.10
2023-05-13T06:08:43.670Z,13.20
2023-05-13T06:09:43.661Z,13.60
2023-05-13T06:10:45.136Z,12.90
2023-05-13T06:11:43.661Z,11.50
2023-05-13T06:12:43.661Z,12.60
2023-05-13T06:13:43.661Z,13.10
2023-05-13T06:14:43.653Z,12.70
2023-05-13T06:15:43.696Z,13.60
2023-05-13T06:16:43.661Z,13.40
2023-05-13T06:17:43.695Z,12.20
2023-05-13T06:18:43.697Z,12.90
2023-05-13T06:19:43.646Z,13.40
2023-05-13T06:20:43.643Z,12.50
2023-05-13T06:21:43.643Z,12.50
2023-05-13T06:22:43.642Z,11.40
2023-05-13T06:23:43.639Z,11.90
2023-05-13T06:24:43.640Z,12.00
2023-05-13T06:25:43.668Z,11.70
2023-05-13T06:26:43.632Z,11.40
2023-05-13T06:27:43.626Z,11.80
2023-05-13T06:28:44.132Z,12.10
2023-05-13T06:29:43.628Z,12.50
2023-05-13T06:30:43.632Z,11.80
2023-05-13T06:31:43.795Z,12.10
2023-05-13T06:32:53.506Z,12.70
2023-05-13T06:33:43.620Z,12.40
2023-05-13T06:34:43.639Z,12.80
2023-05-13T06:35:43.620Z,12.80
2023-05-13T06:36:43.613Z,11.90
2023-05-13T06:37:43.614Z,13.40
2023-05-13T06:38:43.624Z,11.60
2023-05-13T06:39:43.612Z,11.80
2023-05-13T06:40:43.605Z,11.70
2023-05-13T06:41:43.620Z,11.80
2023-05-13T06:42:43.610Z,11.40
2023-05-13T06:43:43.600Z,11.40
2023-05-13T06:44:43.603Z,12.80
2023-05-13T06:45:43.596Z,12.60
2023-05-13T06:46:43.668Z,12.40
2023-05-13T06:47:43.632Z,12.30
2023-05-13T06:48:43.624Z,11.30
2023-05-13T06:49:43.594Z,11.70
2023-05-13T06:50:43.615Z,11.50
2023-05-13T06:51:43.593Z,11.20
2023-05-13T06:52:43.593Z,10.50
2023-05-13T06:53:43.580Z,11.10
2023-05-13T06:54:43.590Z,9.60
2023-05-13T06:55:43.580Z,10.00
2023-05-13T06:56:43.584Z,10.20
2023-05-13T06:57:43.815Z,9.90
2023-05-13T06:58:43.587Z,9.90
2023-05-13T06:59:43.598Z,10.00
2023-05-13T07:00:43.615Z,9.80
2023-05-13T07:01:43.589Z,9.70
2023-05-13T07:02:43.623Z,9.40
2023-05-13T07:03:43.637Z,9.90
2023-05-13T07:04:43.567Z,9.90
2023-05-13T07:05:43.570Z,9.50
2023-05-13T07:06:43.582Z,9.00
2023-05-13T07:07:43.558Z,9.40
2023-05-13T07:08:43.562Z,9.50
2023-05-13T07:09:43.561Z,9.10
2023-05-13T07:10:43.565Z,9.50
2023-05-13T07:11:43.560Z,9.50
2023-05-13T07:12:43.552Z,9.50
2023-05-13T07:13:43.549Z,9.80
2023-05-13T07:14:43.553Z,9.40
2023-05-13T07:15:43.549Z,8.90
2023-05-13T07:16:45.724Z,9.60
2023-05-13T07:17:43.580Z,8.70
2023-05-13T07:18:43.608Z,9.20
2023-05-13T07:19:43.543Z,9.20
2023-05-13T07:20:43.536Z,9.10
2023-05-13T07:21:43.551Z,8.80
2023-05-13T07:22:43.554Z,8.70
2023-05-13T07:23:44.559Z,9.30
2023-05-13T07:24:43.532Z,8.80
2023-05-13T07:25:43.530Z,9.00
2023-05-13T07:26:43.526Z,8.80
2023-05-13T07:27:43.527Z,9.10
2023-05-13T07:28:43.534Z,8.80
2023-05-13T07:29:43.528Z,8.60
2023-05-13T07:30:43.551Z,8.90
2023-05-13T07:31:43.525Z,9.10
2023-05-13T07:32:43.582Z,8.70
2023-05-13T07:33:43.725Z,9.00
2023-05-13T07:34:43.519Z,9.30
2023-05-13T07:35:43.517Z,9.50
2023-05-13T07:36:43.514Z,10.00
2023-05-13T07:37:43.515Z,10.50
2023-05-13T07:38:43.530Z,9.90
2023-05-13T07:39:43.507Z,10.00
2023-05-13T07:40:43.509Z,10.90
2023-05-13T07:41:43.517Z,10.00
2023-05-13T07:42:43.511Z,10.40
2023-05-13T07:43:43.505Z,9.70
2023-05-13T07:44:43.506Z,9.40
2023-05-13T07:45:43.507Z,10.10
2023-05-13T07:46:43.582Z,9.70
2023-05-13T07:47:44.502Z,8.60
2023-05-13T07:48:43.504Z,8.30
2023-05-13T07:49:43.503Z,8.30
2023-05-13T07:50:43.500Z,8.40
2023-05-13T07:51:43.493Z,8.10
2023-05-13T07:52:43.490Z,7.80
2023-05-13T07:53:43.490Z,7.30
2023-05-13T07:54:43.507Z,7.60
2023-05-13T07:55:43.490Z,8.00
2023-05-13T07:56:43.488Z,7.80
2023-05-13T07:57:43.487Z,7.60
2023-05-13T07:58:43.495Z,7.30
2023-05-13T07:59:44.753Z,7.70
2023-05-13T08:00:43.481Z,7.70
2023-05-13T08:01:43.485Z,8.10
2023-05-13T08:02:43.575Z,8.00
2023-05-13T08:03:43.681Z,7.80
2023-05-13T08:04:43.526Z,8.50
2023-05-13T08:05:43.478Z,8.10
2023-05-13T08:06:43.478Z,7.90
2023-05-13T08:07:43.469Z,8.40
2023-05-13T08:08:43.468Z,8.00
2023-05-13T08:09:43.470Z,8.50
2023-05-13T08:10:43.519Z,8.00
2023-05-13T08:11:43.471Z,8.20
2023-05-13T08:12:43.494Z,8.40
2023-05-13T08:13:43.465Z,8.20
2023-05-13T08:14:43.470Z,8.10
2023-05-13T08:15:43.456Z,8.50
2023-05-13T08:16:43.484Z,7.90
2023-05-13T08:17:43.484Z,8.20
2023-05-13T08:18:45.688Z,8.10
2023-05-13T08:19:43.450Z,8.20
2023-05-13T08:20:43.453Z,8.10
2023-05-13T08:21:43.445Z,7.30
2023-05-13T08:22:43.446Z,7.90
2023-05-13T08:23:45.947Z,7.40
2023-05-13T08:24:43.447Z,7.30
2023-05-13T08:25:43.443Z,7.80
2023-05-13T08:26:43.458Z,7.90
2023-05-13T08:27:43.435Z,7.70
2023-05-13T08:28:43.443Z,7.60
2023-05-13T08:29:43.435Z,7.70
2023-05-13T08:30:43.437Z,6.90
2023-05-13T08:31:43.470Z,7.10
2023-05-13T08:32:43.449Z,7.30
2023-05-13T08:33:43.429Z,6.90
2023-05-13T08:34:43.628Z,7.30
2023-05-13T08:35:44.766Z,7.30
2023-05-13T08:36:43.435Z,7.20
2023-05-13T08:37:43.441Z,7.70
2023-05-13T08:38:43.427Z,7.20
2023-05-13T08:39:43.452Z,7.70
2023-05-13T08:40:43.426Z,7.90
2023-05-13T08:41:43.421Z,7.60
2023-05-13T08:42:43.438Z,7.90
2023-05-13T08:43:43.419Z,8.40
2023-05-13T08:44:43.414Z,7.90
2023-05-13T08:45:43.442Z,7.40
2023-05-13T08:46:43.418Z,7.50
2023-05-13T08:47:43.448Z,7.50
2023-05-13T08:48:43.421Z,7.60
2023-05-13T08:49:43.431Z,7.60
2023-05-13T08:50:43.413Z,7.90
2023-05-13T08:51:43.416Z,7.50
2023-05-13T08:52:43.417Z,7.50
2023-05-13T08:53:43.414Z,7.50
2023-05-13T08:54:43.411Z,7.50
2023-05-13T08:55:43.414Z,7.50
2023-05-13T08:56:43.407Z,7.80
2023-05-13T08:57:43.405Z,7.30
2023-05-13T08:58:43.421Z,7.30
2023-05-13T08:59:43.413Z,7.50
2023-05-13T09:00:43.403Z,7.40
2023-05-13T09:01:43.456Z,7.30
2023-05-13T09:02:43.441Z,7.50
2023-05-13T09:03:43.403Z,7.20
2023-05-13T09:04:43.444Z,7.30
2023-05-13T09:05:43.437Z,7.30
2023-05-13T09:06:43.396Z,7.40
2023-05-13T09:07:43.407Z,7.20
2023-05-13T09:08:43.401Z,7.20
2023-05-13T09:09:43.411Z,7.50
2023-05-13T09:10:43.396Z,7.00
2023-05-13T09:11:44.807Z,7.90
2023-05-13T09:12:43.391Z,7.60
2023-05-13T09:13:43.398Z,7.20
2023-05-13T09:14:43.412Z,7.30
2023-05-13T09:15:43.415Z,7.10
2023-05-13T09:16:43.388Z,6.90
2023-05-13T09:17:43.431Z,6.90
2023-05-13T09:18:46.102Z,7.50
2023-05-13T09:19:43.494Z,7.10
2023-05-13T09:20:43.384Z,7.00
2023-05-13T09:21:43.384Z,6.90
2023-05-13T09:22:43.382Z,6.50
2023-05-13T09:23:43.384Z,6.90
2023-05-13T09:24:43.379Z,6.30
2023-05-13T09:25:43.381Z,6.50
2023-05-13T09:26:43.375Z,7.10
2023-05-13T09:27:43.378Z,6.80
2023-05-13T09:28:43.375Z,7.00
2023-05-13T09:29:43.378Z,7.40
2023-05-13T09:30:46.346Z,6.80
2023-05-13T09:31:43.494Z,7.20
2023-05-13T09:32:43.421Z,7.20
2023-05-13T09:33:43.369Z,7.30
2023-05-13T09:34:43.770Z,7.10
2023-05-13T09:35:43.374Z,7.40
2023-05-13T09:36:43.368Z,7.40
2023-05-13T09:37:43.368Z,7.00
2023-05-13T09:38:43.364Z,6.60
2023-05-13T09:39:43.366Z,6.70
2023-05-13T09:40:43.368Z,7.10
2023-05-13T09:41:43.366Z,6.40
2023-05-13T09:42:43.361Z,6.00
2023-05-13T09:43:43.364Z,6.10
2023-05-13T09:44:43.367Z,5.80
2023-05-13T09:45:43.361Z,5.50
2023-05-13T09:46:43.498Z,6.40
2023-05-13T09:47:43.408Z,6.10
2023-05-13T09:48:43.354Z,6.30
2023-05-13T09:49:43.355Z,6.10
2023-05-13T09:50:43.352Z,6.00
2023-05-13T09:51:43.359Z,6.00
2023-05-13T09:52:43.362Z,5.70
2023-05-13T09:53:43.356Z,6.00
2023-05-13T09:54:43.350Z,6.20
2023-05-13T09:55:43.354Z,6.40
2023-05-13T09:56:43.352Z,6.30
2023-05-13T09:57:43.353Z,6.30
2023-05-13T09:58:43.360Z,6.20
2023-05-13T09:59:43.357Z,6.10
2023-05-13T10:00:43.858Z,5.60
2023-05-13T10:01:43.371Z,5.90
2023-05-13T10:02:43.427Z,6.10
2023-05-13T10:03:43.393Z,5.80
2023-05-13T10:04:43.343Z,6.20
2023-05-13T10:05:43.352Z,6.20
2023-05-13T10:06:43.341Z,6.00
2023-05-13T10:07:43.343Z,6.30
2023-05-13T10:08:43.351Z,6.50
2023-05-13T10:09:43.339Z,6.00
2023-05-13T10:10:43.459Z,5.80
2023-05-13T10:11:43.340Z,5.60
2023-05-13T10:12:43.336Z,5.40
2023-05-13T10:13:43.340Z,5.60
2023-05-13T10:14:43.336Z,5.30
2023-05-13T10:15:43.336Z,5.00
2023-05-13T10:16:43.430Z,4.80
2023-05-13T10:17:43.376Z,4.90
2023-05-13T10:18:43.412Z,4.90
2023-05-13T10:19:43.340Z,4.90
2023-05-13T10:20:43.332Z,4.60
2023-05-13T10:21:43.331Z,4.70
2023-05-13T10:22:43.328Z,4.90
2023-05-13T10:23:46.334Z,5.00
2023-05-13T10:24:43.330Z,5.40
2023-05-13T10:25:43.336Z,5.10
2023-05-13T10:26:43.325Z,5.10
2023-05-13T10:27:43.327Z,5.10
2023-05-13T10:28:43.324Z,5.10
2023-05-13T10:29:43.325Z,4.70
2023-05-13T10:30:43.321Z,5.10
2023-05-13T10:31:43.368Z,5.00
2023-05-13T10:32:43.330Z,5.00
2023-05-13T10:33:43.334Z,5.20
2023-05-13T10:34:43.747Z,4.90
2023-05-13T10:35:43.400Z,5.00
2023-05-13T10:36:43.318Z,5.10
2023-05-13T10:37:43.340Z,5.30
2023-05-13T10:38:43.313Z,5.00
2023-05-13T10:39:43.329Z,5.40
2023-05-13T10:40:43.313Z,5.50
2023-05-13T10:41:43.316Z,5.00
2023-05-13T10:42:43.376Z,4.80
2023-05-13T10:43:43.314Z,5.00
2023-05-13T10:44:43.317Z,5.20
2023-05-13T10:45:43.319Z,4.70
2023-05-13T10:46:43.484Z,4.60
2023-05-13T10:47:43.437Z,4.80
2023-05-13T10:48:43.686Z,4.60
2023-05-13T10:49:43.310Z,4.50
2023-05-13T10:50:43.322Z,5.00
2023-05-13T10:51:43.307Z,4.70
2023-05-13T10:52:43.320Z,4.40
2023-05-13T10:53:43.303Z,4.40
2023-05-13T10:54:43.298Z,4.20
2023-05-13T10:55:43.306Z,4.50
2023-05-13T10:56:43.298Z,4.70
2023-05-13T10:57:43.302Z,4.60
2023-05-13T10:58:43.307Z,5.20
2023-05-13T10:59:43.313Z,5.20
2023-05-13T11:00:43.311Z,4.80
2023-05-13T11:01:43.745Z,4.80
2023-05-13T11:02:43.403Z,4.90
2023-05-13T11:03:43.433Z,4.90
2023-05-13T11:04:43.308Z,5.10
2023-05-13T11:05:43.332Z,4.80
2023-05-13T11:06:43.333Z,5.20
2023-05-13T11:07:43.307Z,4.80
2023-05-13T11:08:43.297Z,4.60
2023-05-13T11:09:43.296Z,4.60
2023-05-13T11:10:43.294Z,4.70
2023-05-13T11:11:43.302Z,4.60
2023-05-13T11:12:43.295Z,4.80
2023-05-13T11:13:43.296Z,4.60
2023-05-13T11:14:43.298Z,4.90
2023-05-13T11:15:43.351Z,5.00
2023-05-13T11:16:43.397Z,5.10
2023-05-13T11:17:43.319Z,4.80
2023-05-13T11:18:43.371Z,4.60
2023-05-13T11:19:43.289Z,4.90
2023-05-13T11:22:52.789Z,4.80
2023-05-13T11:23:27.027Z,4.70
2023-05-13T11:24:27.064Z,4.80
2023-05-13T11:25:27.047Z,5.20
2023-05-13T11:26:27.035Z,4.70
2023-05-13T11:29:10.775Z,4.80
2023-05-13T11:30:10.778Z,4.60
2023-05-13T11:31:10.805Z,4.80
2023-05-13T11:32:10.775Z,4.80
2023-05-13T11:33:10.816Z,4.70
2023-05-13T11:34:10.779Z,4.60
2023-05-13T11:35:10.780Z,4.10
2023-05-13T11:36:10.803Z,4.30
2023-05-13T11:37:10.798Z,4.90
2023-05-13T11:38:10.795Z,5.00
2023-05-13T11:39:10.768Z,4.70
2023-05-13T11:40:10.772Z,4.50
2023-05-13T11:41:10.771Z,4.50
2023-05-13T11:42:10.770Z,4.20
2023-05-13T11:43:10.779Z,4.60
2023-05-13T11:44:10.769Z,4.60
2023-05-13T11:45:10.770Z,4.60
2023-05-13T11:46:10.782Z,4.60
2023-05-13T11:47:10.768Z,4.50
2023-05-13T11:48:10.809Z,4.50
2023-05-13T11:49:10.767Z,4.40
2023-05-13T11:50:10.802Z,4.80
2023-05-13T11:51:10.764Z,4.60
2023-05-13T11:52:10.762Z,5.00
2023-05-13T11:53:10.765Z,4.90
2023-05-13T11:54:10.787Z,4.70
2023-05-13T11:55:10.769Z,4.30
2023-05-13T11:56:10.779Z,4.50
2023-05-13T11:57:10.765Z,4.50
2023-05-13T11:58:10.772Z,4.50
2023-05-13T11:59:10.765Z,4.80
2023-05-13T12:00:10.771Z,5.10
2023-05-13T12:01:10.768Z,4.60
2023-05-13T12:02:10.842Z,4.70
2023-05-13T12:03:10.791Z,4.80
2023-05-13T12:04:10.764Z,4.90
2023-05-13T12:05:10.794Z,5.40
2023-05-13T12:06:10.766Z,5.10
2023-05-13T12:07:10.767Z,4.30
2023-05-13T12:08:10.764Z,4.80
2023-05-13T12:09:10.843Z,4.70
2023-05-13T12:10:10.780Z,4.60
2023-05-13T12:11:10.762Z,4.50
2023-05-13T12:12:10.766Z,4.80
2023-05-13T12:13:10.773Z,5.20
2023-05-13T12:14:10.764Z,5.10
2023-05-13T12:15:10.784Z,4.90
2023-05-13T12:16:10.824Z,4.80
2023-05-13T12:17:10.764Z,4.50
2023-05-13T12:18:10.824Z,5.10
2023-05-13T12:19:10.892Z,5.10
2023-05-13T12:20:10.926Z,4.90
2023-05-13T12:21:10.762Z,5.10
2023-05-13T12:22:10.767Z,5.30
2023-05-13T12:23:11.019Z,5.40
2023-05-13T12:24:10.760Z,4.90
2023-05-13T12:25:10.759Z,5.00
2023-05-13T12:26:10.784Z,5.40
2023-05-13T12:27:11.616Z,5.20
2023-05-13T12:28:10.783Z,4.90
2023-05-13T12:29:10.765Z,5.10
2023-05-13T12:30:10.792Z,5.10
2023-05-13T12:31:10.791Z,5.10
2023-05-13T12:32:10.762Z,4.90
2023-05-13T12:33:10.797Z,5.20
2023-05-13T12:34:10.767Z,4.80
2023-05-13T12:35:10.756Z,4.90
2023-05-13T12:36:10.757Z,4.70
2023-05-13T12:37:10.835Z,5.00
2023-05-13T12:38:10.759Z,4.40
2023-05-13T12:39:10.761Z,4.00
2023-05-13T12:40:10.758Z,3.80
2023-05-13T12:41:10.757Z,3.60
2023-05-13T12:42:10.776Z,4.10
2023-05-13T12:43:10.754Z,3.50
2023-05-13T12:44:10.754Z,3.50
2023-05-13T12:45:10.754Z,3.40
2023-05-13T12:46:10.793Z,3.90
2023-05-13T12:47:10.814Z,3.80
2023-05-13T12:48:10.856Z,3.80
2023-05-13T12:49:10.752Z,3.70
2023-05-13T12:50:10.757Z,4.00
2023-05-13T12:51:10.758Z,3.80
2023-05-13T12:52:10.754Z,3.80
2023-05-13T12:53:10.760Z,3.70
2023-05-13T12:54:10.762Z,3.70
2023-05-13T12:55:10.756Z,3.70
2023-05-13T12:56:10.757Z,4.00
2023-05-13T12:57:10.751Z,3.80
2023-05-13T12:58:10.928Z,3.80
2023-05-13T12:59:10.755Z,4.00
2023-05-13T13:00:10.768Z,3.60
2023-05-13T13:01:10.796Z,4.10
2023-05-13T13:02:10.777Z,3.80
2023-05-13T13:03:10.809Z,3.60
2023-05-13T13:04:10.923Z,4.00
2023-05-13T13:05:10.759Z,3.60
2023-05-13T13:06:10.756Z,3.40
2023-05-13T13:07:10.759Z,3.50
2023-05-13T13:08:10.754Z,3.20